Lawler, Iowa
Current Conditions -  °F | °C
As of 5:15 PM on Monday 22 Dec 2014 (Local Time) from KCCY Reporting Station
Haze Haze  
Wind Chill: 27°   Ceiling: 600
Heat Index: 36°   Visibility: 4mi
Dew Point: 36°   Wind: 14mph
Humidity: 100%   Direction: 100°E
Pressure: 29.54"   Gusts: NA
Location:  43.07°N, 92.15°W
Report Text: KCCY 222315Z AUTO 10012KT 4SM BR OVC006 02/02 A2954 RMK AO2
Loading
Personal Weather Stations






























Interactive Weather Map New forecast layout! Learn more

10-Day Weather Forecast

Advertisements
Track Severe Weather on mobile